Pomona, Washington
Current Conditions -  °F | °C
As of 4:23 PM on Saturday 20 Dec 2014 (Local Time) from KYKM Reporting Station
Light Rain Light Rain  
Wind Chill: 42°   Ceiling: 1100
Heat Index: 42°   Visibility: 9mi
Dew Point: 39°   Wind: 0mph
Humidity: 89%   Direction: NA
Pressure: 29.61"   Gusts: NA
Location:  46.5979°N, 120.534°W
Report Text: KYKM 210023Z 00000KT 9SM -RA BKN011 BKN022 BKN075 06/04 A2961 RMK AO2 P0000 T00560039
Loading
Personal Weather Stations






























Interactive Weather Map New forecast layout! Learn more

10-Day Weather Forecast

Advertisements
Track Severe Weather on mobile